KMAN

Nampa Municipal Airport

Nampa, Idaho, USA
METAR KMAN 230815Z AUTO 12006KT 10SM FEW044 BKN095 BKN120 17/12 A2982 RMK A01
Observed Flight Rules
May-23 @ 08:15 UTC (25 minutes ago) Visual Flight Rules
Wind Visibility Clouds
120° at 6 knots 10 miles
  • Few at 4,400' AGL
  • Broken at 9,500' AGL
  • Broken at 12,000' AGL
Temperatures Readings
Current 17°C / 63°F
Dewpoint 12°C / 54°F
Humidity 73%
Altimeter 29.82" Hg
Pressure 1010 hPa
Elevation 774
METAR KMAN 230815Z AUTO 12006KT 10SM FEW044 BKN095 BKN120 17/12 A2982 RMK A01
Observed Flight Rules
May-23 @ 08:15 UTC
(25 minutes ago)
VFR
Wind Visibility
120° at 6 knots 10 miles
Clouds
  • Few at 4,400' AGL
  • Broken at 9,500' AGL
  • Broken at 12,000' AGL
Temperature Dewpoint
17°C / 63°F 12°C / 54°F
Humidity Altimeter Pressure
73% 29.82" Hg 1010 hPa